createdAt,value
2023-04-18T00:09:37.755Z,96383.84
2023-04-18T00:12:06.987Z,96382.22
2023-04-18T00:14:40.071Z,96386.34
2023-04-18T00:18:11.768Z,96384.41
2023-04-18T03:24:03.833Z,96351.88
2023-04-18T05:56:23.176Z,96355.84
2023-04-18T06:09:42.940Z,96413.63
2023-04-18T06:12:11.017Z,96421.16
2023-04-18T06:14:38.914Z,96409.13
2023-04-18T06:17:07.659Z,96413.53
2023-04-18T06:19:35.581Z,96416.50
2023-04-18T06:22:03.450Z,96416.44
2023-04-18T06:24:31.407Z,96421.28
2023-04-18T06:27:01.902Z,96418.16
2023-04-18T06:29:33.060Z,96418.69
2023-04-18T06:32:01.049Z,96411.38
2023-04-18T06:34:28.956Z,96417.66
2023-04-18T06:37:00.711Z,96427.91
2023-04-18T06:39:28.969Z,96432.03
2023-04-18T06:41:57.880Z,96425.88
2023-04-18T06:44:27.194Z,96423.19
2023-04-18T06:46:55.981Z,96426.78
2023-04-18T06:49:26.340Z,96430.97
2023-04-18T06:51:54.729Z,96425.31
2023-04-18T06:54:22.732Z,96430.31
2023-04-18T06:56:50.760Z,96429.47
2023-04-18T06:59:19.267Z,96447.53
2023-04-18T07:01:48.995Z,96432.38
2023-04-18T07:04:17.219Z,96442.72
2023-04-18T07:06:45.462Z,96436.59
2023-04-18T07:09:13.308Z,96434.78
2023-04-18T07:11:41.158Z,96440.50
2023-04-18T07:14:09.064Z,96442.22
2023-04-18T07:16:36.977Z,96442.72
2023-04-18T07:19:06.617Z,96439.66
2023-04-18T07:21:34.569Z,96441.38
2023-04-18T07:24:02.507Z,96430.63
2023-04-18T07:26:30.430Z,96436.13
2023-04-18T07:28:58.367Z,96433.88
2023-04-18T07:31:28.630Z,96438.56
2023-04-18T07:33:56.687Z,96443.72
2023-04-18T07:36:26.433Z,96437.72
2023-04-18T07:38:54.337Z,96442.78
2023-04-18T07:41:22.245Z,96442.81
2023-04-18T07:43:50.149Z,96439.78
2023-04-18T07:46:18.167Z,96427.69
2023-04-18T07:48:46.271Z,96440.66
2023-04-18T07:51:14.534Z,96442.19
2023-04-18T07:53:44.475Z,96437.69
2023-04-18T07:56:14.507Z,96440.84
2023-04-18T07:58:42.431Z,96446.16
2023-04-18T08:01:14.081Z,96443.03
2023-04-18T08:03:42.161Z,96441.28
2023-04-18T08:06:10.220Z,96443.94
2023-04-18T08:08:38.101Z,96445.13
2023-04-18T08:11:07.414Z,96441.41
2023-04-18T08:13:35.312Z,96452.50
2023-04-18T08:16:03.262Z,96455.22
2023-04-18T08:18:31.178Z,96449.94
2023-04-18T08:20:59.031Z,96449.59
2023-04-18T08:23:26.903Z,96446.81
2023-04-18T08:25:54.821Z,96438.06
2023-04-18T08:28:24.055Z,96447.41
2023-04-18T08:30:52.165Z,96447.16
2023-04-18T08:33:20.078Z,96440.59
2023-04-18T08:35:47.891Z,96450.22
2023-04-18T08:38:17.255Z,96449.50
2023-04-18T08:40:45.567Z,96449.59
2023-04-18T08:43:15.118Z,96446.13
2023-04-18T08:45:45.814Z,96449.19
2023-04-18T08:48:14.745Z,96447.97
2023-04-18T08:50:48.849Z,96458.16
2023-04-18T08:53:17.788Z,96462.88
2023-04-18T08:55:50.610Z,96460.00
2023-04-18T08:58:23.326Z,96470.31
2023-04-18T09:00:53.326Z,96471.09
2023-04-18T09:03:39.579Z,96451.63
2023-04-18T09:06:09.434Z,96458.81
2023-04-18T09:08:38.223Z,96470.75
2023-04-18T09:11:22.942Z,96461.28
2023-04-18T09:13:51.858Z,96466.81
2023-04-18T09:16:22.996Z,96458.88
2023-04-18T09:19:12.650Z,96461.28
2023-04-18T09:21:44.443Z,96458.50
2023-04-18T09:24:23.707Z,96445.41
2023-04-18T09:26:57.131Z,96456.47
2023-04-18T09:29:46.604Z,96448.16
2023-04-18T09:32:29.117Z,96473.13
2023-04-18T09:35:01.394Z,96463.59
2023-04-18T09:37:30.806Z,96460.00
2023-04-18T09:39:58.683Z,96460.41
2023-04-18T09:42:28.781Z,96463.94
2023-04-18T09:45:07.049Z,96463.63
2023-04-18T09:47:37.539Z,96466.78
2023-04-18T09:50:07.574Z,96460.03
2023-04-18T09:52:38.964Z,96464.38
2023-04-18T09:55:09.710Z,96453.69
2023-04-18T09:57:40.650Z,96470.34
2023-04-18T10:00:14.013Z,96462.03
2023-04-18T10:02:51.218Z,96470.38
2023-04-18T10:05:21.343Z,96467.63
2023-04-18T10:07:51.111Z,96472.34
2023-04-18T10:10:19.306Z,96471.53
2023-04-18T10:12:50.739Z,96457.28
2023-04-18T10:15:22.136Z,96476.72
2023-04-18T10:20:28.615Z,96462.84
2023-04-18T10:22:58.644Z,96464.81
2023-04-18T10:25:48.745Z,96471.53
2023-04-18T10:28:16.683Z,96466.03
2023-04-18T10:30:53.502Z,96465.22
2023-04-18T10:33:31.764Z,96464.41
2023-04-18T10:36:03.292Z,96471.19
2023-04-18T10:38:31.215Z,96465.19
2023-04-18T10:41:15.916Z,96467.19
2023-04-18T10:44:15.840Z,96475.53
2023-04-18T10:47:20.977Z,96466.78
2023-04-18T10:49:58.952Z,96451.75
2023-04-18T10:52:28.557Z,96472.75
2023-04-18T10:55:08.860Z,96467.97
2023-04-18T10:57:44.351Z,96469.97
2023-04-18T11:00:15.221Z,96468.38
2023-04-18T11:02:52.545Z,96466.78
2023-04-18T11:05:24.579Z,96461.63
2023-04-18T11:07:53.443Z,96481.84
2023-04-18T11:10:23.809Z,96471.53
2023-04-18T11:12:52.622Z,96468.38
2023-04-18T11:15:22.569Z,96462.44
2023-04-18T11:17:59.600Z,96462.06
2023-04-18T11:20:29.881Z,96466.41
2023-04-18T11:22:59.791Z,96469.97
2023-04-18T11:25:30.673Z,96462.84
2023-04-18T11:28:01.084Z,96458.06
2023-04-18T11:30:31.387Z,96452.09
2023-04-18T11:32:59.326Z,96462.78
2023-04-18T11:35:28.837Z,96454.88
2023-04-18T11:37:56.722Z,96461.25
2023-04-18T11:40:24.801Z,96462.44
2023-04-18T11:42:55.707Z,96450.56
2023-04-18T11:45:23.566Z,96462.84
2023-04-18T11:47:58.182Z,96458.50
2023-04-18T11:50:27.987Z,96463.25
2023-04-18T11:52:56.435Z,96464.81
2023-04-18T11:55:27.187Z,96464.03
2023-04-18T11:57:56.815Z,96452.13
2023-04-18T12:00:33.836Z,96466.78
2023-04-18T12:03:04.493Z,96462.03
2023-04-18T12:51:27.955Z,96428.75
2023-04-18T12:53:56.383Z,96434.28
2023-04-18T12:56:24.503Z,96450.97
2023-04-18T12:58:52.401Z,96446.19
2023-04-18T13:01:21.109Z,96445.38
2023-04-18T13:03:59.867Z,96444.50
2023-04-18T13:06:29.708Z,96432.59
2023-04-18T13:08:57.684Z,96450.06
2023-04-18T13:11:28.574Z,96449.25
2023-04-18T13:13:56.838Z,96442.88
2023-04-18T13:16:24.870Z,96454.28
2023-04-18T13:18:52.780Z,96457.06
2023-04-18T13:21:20.732Z,96449.91
2023-04-18T13:23:50.003Z,96453.56
2023-04-18T13:26:17.931Z,96442.88
2023-04-18T13:28:45.875Z,96443.75
2023-04-18T13:31:15.641Z,96445.38
2023-04-18T13:33:44.847Z,96447.75
2023-04-18T13:36:12.785Z,96427.16
2023-04-18T13:38:41.145Z,96446.19
2023-04-18T13:41:13.343Z,96440.66
2023-04-18T13:43:41.755Z,96445.81
2023-04-18T13:46:09.736Z,96446.22
2023-04-18T13:48:37.712Z,96438.25
2023-04-18T13:51:06.925Z,96443.81
2023-04-18T13:53:35.541Z,96451.72
2023-04-18T13:56:03.572Z,96447.72
2023-04-18T13:58:32.869Z,96450.16
2023-04-18T14:01:00.993Z,96438.28
2023-04-18T14:03:29.651Z,96450.97
2023-04-18T14:05:59.319Z,96457.72
2023-04-18T14:08:27.377Z,96443.03
2023-04-18T14:10:55.460Z,96455.31
2023-04-18T14:13:23.374Z,96452.53
2023-04-18T14:15:53.792Z,96448.59
2023-04-18T14:18:23.560Z,96450.56
2023-04-18T14:20:51.924Z,96452.16
2023-04-18T14:23:20.236Z,96430.75
2023-04-18T14:25:48.124Z,96456.50
2023-04-18T14:28:17.267Z,96460.84
2023-04-18T14:30:45.369Z,96441.44
2023-04-18T14:33:14.596Z,96458.88
2023-04-18T14:35:43.760Z,96443.81
2023-04-18T14:38:12.034Z,96435.09
2023-04-18T14:40:40.092Z,96461.66
2023-04-18T14:43:08.075Z,96454.53
2023-04-18T14:45:36.069Z,96448.56
2023-04-18T14:48:04.006Z,96450.53
2023-04-18T14:50:33.424Z,96457.72
2023-04-18T14:53:01.549Z,96437.47
2023-04-18T14:55:29.488Z,96448.59
2023-04-18T14:57:57.586Z,96457.31
2023-04-18T15:00:25.691Z,96450.94
2023-04-18T15:02:54.817Z,96438.25
2023-04-18T15:05:24.537Z,96449.38
2023-04-18T15:07:54.058Z,96454.13
2023-04-18T15:10:22.573Z,96455.31
2023-04-18T15:12:51.403Z,96452.53
2023-04-18T15:15:19.911Z,96439.84
2023-04-18T15:17:47.836Z,96450.19
2023-04-18T15:20:16.103Z,96457.72
2023-04-18T15:22:44.075Z,96458.09
2023-04-18T15:25:16.410Z,96451.75
2023-04-18T15:27:44.313Z,96438.66
2023-04-18T15:30:13.077Z,96440.66
2023-04-18T15:32:42.230Z,96462.84
2023-04-18T15:35:10.789Z,96444.22
2023-04-18T15:37:38.813Z,96444.63
2023-04-18T15:40:11.231Z,96460.84
2023-04-18T15:42:42.512Z,96462.84
2023-04-18T15:45:14.203Z,96450.56
2023-04-18T15:47:42.568Z,96462.44
2023-04-18T15:50:11.154Z,96460.47
2023-04-18T15:52:40.856Z,96463.25
2023-04-18T15:55:13.414Z,96459.66
2023-04-18T15:57:43.410Z,96457.69
2023-04-18T16:00:15.843Z,96463.66
2023-04-18T16:02:50.877Z,96444.59
2023-04-18T16:05:33.343Z,96453.34
2023-04-18T16:08:06.846Z,96451.75
2023-04-18T16:10:34.915Z,96471.53
2023-04-18T16:13:07.621Z,96469.19
2023-04-18T16:15:48.290Z,96476.31
2023-04-18T16:18:17.749Z,96485.41
2023-04-18T16:20:47.088Z,96476.31
2023-04-18T16:23:15.158Z,96477.09
2023-04-18T16:25:43.331Z,96471.13
2023-04-18T16:28:12.974Z,96490.56
2023-04-18T16:30:43.820Z,96479.84
2023-04-18T16:33:12.114Z,96478.25
2023-04-18T16:35:42.056Z,96447.69
2023-04-18T16:38:10.113Z,96491.28
2023-04-18T16:40:52.254Z,96468.69
2023-04-18T16:43:27.964Z,96492.81
2023-04-18T16:45:57.660Z,96464.31
2023-04-18T16:48:26.449Z,96491.22
2023-04-18T16:50:54.830Z,96484.50
2023-04-18T16:53:26.073Z,96499.16
2023-04-18T16:55:54.693Z,96491.59
2023-04-18T16:58:24.214Z,96471.72
2023-04-18T17:00:52.712Z,96499.13
2023-04-18T17:03:20.830Z,96501.06
2023-04-18T17:05:48.779Z,96499.91
2023-04-18T17:08:16.843Z,96514.13
2023-04-18T17:10:45.985Z,96486.28
2023-04-18T17:13:14.344Z,96491.03
2023-04-18T17:15:46.939Z,96520.41
2023-04-18T17:18:15.029Z,96507.72
2023-04-18T17:20:43.174Z,96509.28
2023-04-18T17:23:13.463Z,96496.59
2023-04-18T17:25:44.734Z,96498.16
2023-04-18T17:28:13.953Z,96497.63
2023-04-18T17:30:53.053Z,96514.66
2023-04-18T17:33:22.898Z,96521.91
2023-04-18T17:35:53.232Z,96502.78
2023-04-18T17:38:21.314Z,96521.78
2023-04-18T17:40:49.383Z,96498.66
2023-04-18T17:43:20.712Z,96509.81
2023-04-18T17:45:48.775Z,96499.91
2023-04-18T17:48:17.391Z,96502.69
2023-04-18T17:50:46.770Z,96531.19
2023-04-18T17:53:19.412Z,96523.34
2023-04-18T17:55:50.483Z,96529.19
2023-04-18T17:58:18.545Z,96529.53
2023-04-18T18:00:46.963Z,96523.13
2023-04-18T18:03:15.519Z,96516.38
2023-04-18T18:05:48.003Z,96542.69
2023-04-18T18:08:18.451Z,96533.56
2023-04-18T18:10:47.500Z,96547.94
2023-04-18T18:13:17.832Z,96544.78
2023-04-18T18:15:46.009Z,96557.84
2023-04-18T18:18:15.464Z,96558.28
2023-04-18T18:20:46.232Z,96564.53
2023-04-18T18:23:18.828Z,96564.94
2023-04-18T18:25:47.070Z,96544.69
2023-04-18T18:28:15.319Z,96555.34
2023-04-18T18:30:45.966Z,96560.72
2023-04-18T18:33:14.318Z,96560.22
2023-04-18T18:35:42.506Z,96570.25
2023-04-18T18:38:11.929Z,96579.34
2023-04-18T18:40:43.521Z,96570.59
2023-04-18T18:43:11.830Z,96578.53
2023-04-18T18:45:40.482Z,96571.69
2023-04-18T18:48:08.884Z,96590.28
2023-04-18T18:50:37.224Z,96560.56
2023-04-18T18:53:06.249Z,96582.81
2023-04-18T18:55:36.695Z,96583.13
2023-04-18T18:58:07.997Z,96599.00
2023-04-18T19:00:36.148Z,96596.22
2023-04-18T19:03:04.762Z,96582.38
2023-04-18T19:05:32.947Z,96595.56
2023-04-18T19:08:03.984Z,96592.34
2023-04-18T19:10:32.018Z,96584.50
2023-04-18T19:13:00.432Z,96591.19
2023-04-18T19:15:29.886Z,96580.44
2023-04-18T19:18:01.442Z,96571.31
2023-04-18T19:20:29.486Z,96574.94
2023-04-18T19:23:00.409Z,96580.47
2023-04-18T19:25:28.488Z,96581.25
2023-04-18T19:27:56.626Z,96585.94
2023-04-18T19:30:25.032Z,96591.88
2023-04-18T19:32:54.634Z,96606.53
2023-04-18T19:35:23.464Z,96584.28
2023-04-18T19:37:51.417Z,96599.31
2023-04-18T19:40:19.543Z,96597.28
2023-04-18T19:42:47.687Z,96607.97
2023-04-18T19:45:15.810Z,96596.91
2023-04-18T19:47:45.480Z,96583.38
2023-04-18T19:50:15.525Z,96596.78
2023-04-18T19:52:43.570Z,96602.38
2023-04-18T19:55:11.776Z,96603.84
2023-04-18T19:57:41.549Z,96603.06
2023-04-18T20:00:12.288Z,96615.28
2023-04-18T20:02:42.083Z,96591.91
2023-04-18T20:05:11.291Z,96602.16
2023-04-18T20:07:41.587Z,96602.66
2023-04-18T20:10:10.818Z,96609.78
2023-04-18T20:12:38.748Z,96609.31
2023-04-18T20:15:07.981Z,96614.09
2023-04-18T20:17:36.116Z,96608.16
2023-04-18T20:20:05.071Z,96600.94
2023-04-18T20:22:33.102Z,96612.00
2023-04-18T20:25:02.555Z,96614.00
2023-04-18T20:27:30.514Z,96617.91
2023-04-18T20:29:58.455Z,96613.09
2023-04-18T20:32:26.673Z,96608.75
2023-04-18T20:34:54.850Z,96606.31
2023-04-18T20:37:22.804Z,96605.75
2023-04-18T20:39:50.744Z,96613.34
2023-04-18T20:42:20.180Z,96608.31
2023-04-18T20:44:48.222Z,96589.22
2023-04-18T20:47:16.320Z,96601.53
2023-04-18T20:49:44.337Z,96610.66
2023-04-18T20:52:14.433Z,96604.31
2023-04-18T20:54:42.680Z,96612.97
2023-04-18T20:57:10.639Z,96607.50
2023-04-18T20:59:41.027Z,96595.06
2023-04-18T21:02:09.522Z,96605.13
2023-04-18T21:04:37.700Z,96598.66
2023-04-18T21:07:05.845Z,96601.94
2023-04-18T21:09:36.539Z,96597.84
2023-04-18T21:12:05.311Z,96613.00
2023-04-18T21:14:33.465Z,96607.47
2023-04-18T21:17:02.932Z,96602.13
2023-04-18T21:19:30.886Z,96597.03
2023-04-18T21:21:58.842Z,96604.19
2023-04-18T21:24:26.802Z,96607.75
2023-04-18T21:26:54.876Z,96607.22
2023-04-18T21:29:22.858Z,96593.75
2023-04-18T21:31:51.705Z,96602.94
2023-04-18T21:34:21.352Z,96589.00
2023-04-18T21:36:49.331Z,96601.97
2023-04-18T21:39:17.387Z,96606.44
2023-04-18T21:41:45.676Z,96587.41
2023-04-18T21:44:14.013Z,96607.22
2023-04-18T21:46:42.238Z,96597.78
2023-04-18T21:49:12.106Z,96594.56
2023-04-18T21:51:41.507Z,96585.00
2023-04-18T21:54:09.564Z,96583.00
2023-04-18T21:56:37.518Z,96589.59
2023-04-18T21:59:05.540Z,96588.69
2023-04-18T22:01:34.570Z,96573.78
2023-04-18T22:04:02.893Z,96593.25
2023-04-18T22:06:32.435Z,96567.84
2023-04-18T22:09:01.928Z,96594.44
2023-04-18T22:11:29.969Z,96581.38
2023-04-18T22:13:58.053Z,96590.50
2023-04-18T22:16:26.130Z,96575.03
2023-04-18T22:18:54.129Z,96580.13
2023-04-18T22:21:22.104Z,96572.94
2023-04-18T22:23:50.038Z,96578.13
2023-04-18T22:26:19.463Z,96577.13
2023-04-18T22:28:47.578Z,96580.56
2023-04-18T22:31:15.610Z,96575.03
2023-04-18T22:33:49.653Z,96576.53
2023-04-18T22:36:17.665Z,96582.09
2023-04-18T22:38:45.595Z,96560.19
2023-04-18T22:41:13.526Z,96587.91
2023-04-18T22:43:43.184Z,96580.81
2023-04-18T22:46:11.243Z,96575.94
2023-04-18T22:48:39.244Z,96577.81
2023-04-18T22:51:07.558Z,96592.47
2023-04-18T22:53:35.540Z,96560.72
2023-04-18T22:56:03.796Z,96571.75
2023-04-18T22:58:32.048Z,96590.72
2023-04-18T23:01:02.033Z,96587.97
2023-04-18T23:03:32.349Z,96585.16
2023-04-18T23:06:00.511Z,96585.97
2023-04-18T23:08:29.264Z,96604.88
2023-04-18T23:10:57.277Z,96583.44
2023-04-18T23:13:25.368Z,96587.53
2023-04-18T23:15:53.314Z,96589.97
2023-04-18T23:18:22.669Z,96595.84
2023-04-18T23:20:50.797Z,96588.31
2023-04-18T23:23:22.644Z,96587.75
2023-04-18T23:25:51.156Z,96580.19
2023-04-18T23:28:19.993Z,96587.03
2023-04-18T23:30:50.324Z,96587.03
2023-04-18T23:33:20.781Z,96574.31
2023-04-18T23:35:52.411Z,96573.88
2023-04-18T23:38:20.464Z,96569.78
2023-04-18T23:40:48.587Z,96571.56
2023-04-18T23:43:16.590Z,96577.78
2023-04-18T23:45:44.575Z,96570.28
2023-04-18T23:48:13.567Z,96577.63
2023-04-18T23:50:46.963Z,96556.22
2023-04-18T23:53:17.475Z,96568.13
2023-04-18T23:55:46.150Z,96572.19
2023-04-18T23:58:14.976Z,96570.59
